sensor_id;sensor_type;location;lat;lon;timestamp;temperature;humidity
25582;DHT22;13462;50.764;4.332;2023-02-28T00:02:17;1.20;99.90
25582;DHT22;13462;50.764;4.332;2023-02-28T00:04:43;1.10;99.90
25582;DHT22;13462;50.764;4.332;2023-02-28T00:07:09;1.20;99.90
25582;DHT22;13462;50.764;4.332;2023-02-28T00:09:34;1.20;99.90
25582;DHT22;13462;50.764;4.332;2023-02-28T00:12:00;1.10;99.90
25582;DHT22;13462;50.764;4.332;2023-02-28T00:14:25;1.10;99.90
25582;DHT22;13462;50.764;4.332;2023-02-28T00:16:51;1.10;99.90
25582;DHT22;13462;50.764;4.332;2023-02-28T00:19:16;1.10;99.90
25582;DHT22;13462;50.764;4.332;2023-02-28T00:21:41;1.10;99.90
25582;DHT22;13462;50.764;4.332;2023-02-28T00:24:08;1.10;99.90
25582;DHT22;13462;50.764;4.332;2023-02-28T00:26:33;1.00;99.90
25582;DHT22;13462;50.764;4.332;2023-02-28T00:28:59;1.00;99.90
25582;DHT22;13462;50.764;4.332;2023-02-28T00:31:24;0.90;99.90
25582;DHT22;13462;50.764;4.332;2023-02-28T00:33:50;0.90;99.90
25582;DHT22;13462;50.764;4.332;2023-02-28T00:36:17;0.90;99.90
25582;DHT22;13462;50.764;4.332;2023-02-28T00:38:42;0.90;99.90
25582;DHT22;13462;50.764;4.332;2023-02-28T00:41:08;0.90;99.90
25582;DHT22;13462;50.764;4.332;2023-02-28T00:43:34;0.90;99.90
25582;DHT22;13462;50.764;4.332;2023-02-28T00:46:00;1.00;99.90
25582;DHT22;13462;50.764;4.332;2023-02-28T00:48:26;0.90;99.90
25582;DHT22;13462;50.764;4.332;2023-02-28T00:50:51;0.90;99.90
25582;DHT22;13462;50.764;4.332;2023-02-28T00:53:16;0.90;99.90
25582;DHT22;13462;50.764;4.332;2023-02-28T00:55:42;0.80;99.90
25582;DHT22;13462;50.764;4.332;2023-02-28T00:58:08;0.80;99.90
25582;DHT22;13462;50.764;4.332;2023-02-28T01:00:33;0.80;99.90
25582;DHT22;13462;50.764;4.332;2023-02-28T01:02:59;0.80;99.90
25582;DHT22;13462;50.764;4.332;2023-02-28T01:05:24;0.80;99.90
25582;DHT22;13462;50.764;4.332;2023-02-28T01:07:50;0.80;99.90
25582;DHT22;13462;50.764;4.332;2023-02-28T01:10:15;0.80;99.90
25582;DHT22;13462;50.764;4.332;2023-02-28T01:12:41;0.80;99.90
25582;DHT22;13462;50.764;4.332;2023-02-28T01:15:06;0.80;99.90
25582;DHT22;13462;50.764;4.332;2023-02-28T01:17:32;0.80;99.90
25582;DHT22;13462;50.764;4.332;2023-02-28T01:19:57;0.70;99.90
25582;DHT22;13462;50.764;4.332;2023-02-28T01:22:23;0.60;99.90
25582;DHT22;13462;50.764;4.332;2023-02-28T01:24:48;0.60;99.90
25582;DHT22;13462;50.764;4.332;2023-02-28T01:27:14;0.50;99.90
25582;DHT22;13462;50.764;4.332;2023-02-28T01:29:39;0.60;99.90
25582;DHT22;13462;50.764;4.332;2023-02-28T01:32:05;0.50;99.90
25582;DHT22;13462;50.764;4.332;2023-02-28T01:34:30;0.40;99.90
25582;DHT22;13462;50.764;4.332;2023-02-28T01:36:56;0.40;99.90
25582;DHT22;13462;50.764;4.332;2023-02-28T01:39:24;0.50;99.90
25582;DHT22;13462;50.764;4.332;2023-02-28T01:41:49;0.40;99.90
25582;DHT22;13462;50.764;4.332;2023-02-28T01:46:59;0.50;99.90
25582;DHT22;13462;50.764;4.332;2023-02-28T01:49:25;0.30;99.90
25582;DHT22;13462;50.764;4.332;2023-02-28T01:51:51;0.30;99.90
25582;DHT22;13462;50.764;4.332;2023-02-28T01:54:27;0.40;99.90
25582;DHT22;13462;50.764;4.332;2023-02-28T01:56:55;0.30;99.90
25582;DHT22;13462;50.764;4.332;2023-02-28T01:59:23;0.30;99.90
25582;DHT22;13462;50.764;4.332;2023-02-28T02:01:51;0.30;99.90
25582;DHT22;13462;50.764;4.332;2023-02-28T02:04:16;0.30;99.90
25582;DHT22;13462;50.764;4.332;2023-02-28T02:06:42;0.30;99.90
25582;DHT22;13462;50.764;4.332;2023-02-28T02:09:08;0.30;99.90
25582;DHT22;13462;50.764;4.332;2023-02-28T02:11:34;0.30;99.90
25582;DHT22;13462;50.764;4.332;2023-02-28T02:24:30;0.40;99.90
25582;DHT22;13462;50.764;4.332;2023-02-28T02:30:02;0.30;99.90
25582;DHT22;13462;50.764;4.332;2023-02-28T02:32:38;0.30;99.90
25582;DHT22;13462;50.764;4.332;2023-02-28T02:40:08;0.20;99.90
25582;DHT22;13462;50.764;4.332;2023-02-28T02:42:45;0.20;99.90
25582;DHT22;13462;50.764;4.332;2023-02-28T02:45:15;0.20;99.90
25582;DHT22;13462;50.764;4.332;2023-02-28T02:47:42;0.20;99.90
25582;DHT22;13462;50.764;4.332;2023-02-28T02:50:08;0.10;99.90
25582;DHT22;13462;50.764;4.332;2023-02-28T02:52:38;0.10;99.90
25582;DHT22;13462;50.764;4.332;2023-02-28T02:55:05;0.10;99.90
25582;DHT22;13462;50.764;4.332;2023-02-28T02:57:36;0.00;99.90
25582;DHT22;13462;50.764;4.332;2023-02-28T03:00:04;0.00;99.90
25582;DHT22;13462;50.764;4.332;2023-02-28T03:02:30;0.00;99.90
25582;DHT22;13462;50.764;4.332;2023-02-28T03:05:00;0.00;99.90
25582;DHT22;13462;50.764;4.332;2023-02-28T03:07:26;0.00;99.90
25582;DHT22;13462;50.764;4.332;2023-02-28T03:09:53;0.00;99.90
25582;DHT22;13462;50.764;4.332;2023-02-28T03:12:18;-0.10;99.90
25582;DHT22;13462;50.764;4.332;2023-02-28T03:14:50;-0.10;99.90
25582;DHT22;13462;50.764;4.332;2023-02-28T03:22:40;-0.10;99.90
25582;DHT22;13462;50.764;4.332;2023-02-28T03:30:41;-0.30;99.90
25582;DHT22;13462;50.764;4.332;2023-02-28T03:33:11;-0.30;99.90
25582;DHT22;13462;50.764;4.332;2023-02-28T03:35:40;-0.30;99.90
25582;DHT22;13462;50.764;4.332;2023-02-28T03:38:14;-0.40;99.90
25582;DHT22;13462;50.764;4.332;2023-02-28T03:40:45;-0.30;99.90
25582;DHT22;13462;50.764;4.332;2023-02-28T03:43:14;-0.30;99.90
25582;DHT22;13462;50.764;4.332;2023-02-28T03:45:41;-0.40;99.90
25582;DHT22;13462;50.764;4.332;2023-02-28T03:48:19;-0.40;99.90
25582;DHT22;13462;50.764;4.332;2023-02-28T03:50:47;-0.30;99.90
25582;DHT22;13462;50.764;4.332;2023-02-28T03:53:25;-0.50;99.90
25582;DHT22;13462;50.764;4.332;2023-02-28T03:55:54;-0.50;99.90
25582;DHT22;13462;50.764;4.332;2023-02-28T03:58:24;-0.50;99.90
25582;DHT22;13462;50.764;4.332;2023-02-28T04:01:02;-0.60;99.90
25582;DHT22;13462;50.764;4.332;2023-02-28T04:03:36;-0.60;99.90
25582;DHT22;13462;50.764;4.332;2023-02-28T04:06:02;-0.60;99.90
25582;DHT22;13462;50.764;4.332;2023-02-28T04:08:27;-0.60;99.90
25582;DHT22;13462;50.764;4.332;2023-02-28T04:10:56;-0.70;99.90
25582;DHT22;13462;50.764;4.332;2023-02-28T04:13:23;-0.60;99.90
25582;DHT22;13462;50.764;4.332;2023-02-28T04:15:49;-0.60;99.90
25582;DHT22;13462;50.764;4.332;2023-02-28T04:18:14;-0.60;99.90
25582;DHT22;13462;50.764;4.332;2023-02-28T04:20:40;-0.60;99.90
25582;DHT22;13462;50.764;4.332;2023-02-28T04:23:05;-0.60;99.90
25582;DHT22;13462;50.764;4.332;2023-02-28T04:25:31;-0.50;99.90
25582;DHT22;13462;50.764;4.332;2023-02-28T04:27:56;-0.60;99.90
25582;DHT22;13462;50.764;4.332;2023-02-28T04:30:22;-0.50;99.90
25582;DHT22;13462;50.764;4.332;2023-02-28T04:32:47;-0.60;99.90
25582;DHT22;13462;50.764;4.332;2023-02-28T04:35:13;-0.60;99.90
25582;DHT22;13462;50.764;4.332;2023-02-28T04:37:39;-0.70;99.90
25582;DHT22;13462;50.764;4.332;2023-02-28T04:40:04;-0.60;99.90
25582;DHT22;13462;50.764;4.332;2023-02-28T04:42:30;-0.70;99.90
25582;DHT22;13462;50.764;4.332;2023-02-28T04:45:02;-0.70;99.90
25582;DHT22;13462;50.764;4.332;2023-02-28T04:47:28;-0.70;99.90
25582;DHT22;13462;50.764;4.332;2023-02-28T04:49:56;-0.70;99.90
25582;DHT22;13462;50.764;4.332;2023-02-28T04:52:22;-0.70;99.90
25582;DHT22;13462;50.764;4.332;2023-02-28T04:57:45;-0.70;99.90
25582;DHT22;13462;50.764;4.332;2023-02-28T05:00:13;-0.80;99.90
25582;DHT22;13462;50.764;4.332;2023-02-28T05:02:42;-0.80;99.90
25582;DHT22;13462;50.764;4.332;2023-02-28T05:05:08;-0.70;99.90
25582;DHT22;13462;50.764;4.332;2023-02-28T05:07:36;-0.70;99.90
25582;DHT22;13462;50.764;4.332;2023-02-28T05:10:01;-0.80;99.90
25582;DHT22;13462;50.764;4.332;2023-02-28T05:12:27;-0.80;99.90
25582;DHT22;13462;50.764;4.332;2023-02-28T05:14:53;-0.80;99.90
25582;DHT22;13462;50.764;4.332;2023-02-28T05:17:18;-0.80;99.90
25582;DHT22;13462;50.764;4.332;2023-02-28T05:19:44;-0.70;99.90
25582;DHT22;13462;50.764;4.332;2023-02-28T05:22:13;-0.70;99.90
25582;DHT22;13462;50.764;4.332;2023-02-28T05:24:40;-0.70;99.90
25582;DHT22;13462;50.764;4.332;2023-02-28T05:27:07;-0.80;99.90
25582;DHT22;13462;50.764;4.332;2023-02-28T05:29:33;-0.80;99.90
25582;DHT22;13462;50.764;4.332;2023-02-28T05:31:59;-0.80;99.90
25582;DHT22;13462;50.764;4.332;2023-02-28T05:34:25;-0.70;99.90
25582;DHT22;13462;50.764;4.332;2023-02-28T05:36:50;-0.70;99.90
25582;DHT22;13462;50.764;4.332;2023-02-28T05:39:15;-0.60;99.90
25582;DHT22;13462;50.764;4.332;2023-02-28T05:41:41;-0.60;99.90
25582;DHT22;13462;50.764;4.332;2023-02-28T05:44:07;-0.60;99.90
25582;DHT22;13462;50.764;4.332;2023-02-28T05:46:32;-0.60;99.90
25582;DHT22;13462;50.764;4.332;2023-02-28T05:48:58;-0.60;99.90
25582;DHT22;13462;50.764;4.332;2023-02-28T05:51:25;-0.50;99.90
25582;DHT22;13462;50.764;4.332;2023-02-28T05:53:50;-0.40;99.90
25582;DHT22;13462;50.764;4.332;2023-02-28T05:56:16;-0.40;99.90
25582;DHT22;13462;50.764;4.332;2023-02-28T05:58:41;-0.20;99.90
25582;DHT22;13462;50.764;4.332;2023-02-28T06:01:21;-0.20;99.90
25582;DHT22;13462;50.764;4.332;2023-02-28T06:03:47;-0.20;99.90
25582;DHT22;13462;50.764;4.332;2023-02-28T06:06:13;-0.10;99.90
25582;DHT22;13462;50.764;4.332;2023-02-28T06:08:38;0.00;99.90
25582;DHT22;13462;50.764;4.332;2023-02-28T06:11:04;0.00;99.90
25582;DHT22;13462;50.764;4.332;2023-02-28T06:13:29;0.10;99.90
25582;DHT22;13462;50.764;4.332;2023-02-28T06:15:55;0.20;99.90
25582;DHT22;13462;50.764;4.332;2023-02-28T06:18:20;0.10;99.90
25582;DHT22;13462;50.764;4.332;2023-02-28T06:20:52;0.20;99.90
25582;DHT22;13462;50.764;4.332;2023-02-28T06:23:18;0.30;99.90
25582;DHT22;13462;50.764;4.332;2023-02-28T06:25:46;0.30;99.90
25582;DHT22;13462;50.764;4.332;2023-02-28T06:28:12;0.20;99.90
25582;DHT22;13462;50.764;4.332;2023-02-28T06:30:38;0.30;99.90
25582;DHT22;13462;50.764;4.332;2023-02-28T06:33:04;0.30;99.90
25582;DHT22;13462;50.764;4.332;2023-02-28T06:35:29;0.20;99.90
25582;DHT22;13462;50.764;4.332;2023-02-28T06:37:55;0.30;99.90
25582;DHT22;13462;50.764;4.332;2023-02-28T06:40:21;0.30;99.90
25582;DHT22;13462;50.764;4.332;2023-02-28T06:42:46;0.30;99.90
25582;DHT22;13462;50.764;4.332;2023-02-28T06:45:12;0.40;99.90
25582;DHT22;13462;50.764;4.332;2023-02-28T06:47:38;0.50;99.90
25582;DHT22;13462;50.764;4.332;2023-02-28T06:50:05;0.50;99.90
25582;DHT22;13462;50.764;4.332;2023-02-28T06:52:31;0.50;99.90
25582;DHT22;13462;50.764;4.332;2023-02-28T06:54:56;0.60;99.90
25582;DHT22;13462;50.764;4.332;2023-02-28T06:57:27;0.70;99.90
25582;DHT22;13462;50.764;4.332;2023-02-28T06:59:53;0.80;99.90
25582;DHT22;13462;50.764;4.332;2023-02-28T07:02:18;0.90;99.90
25582;DHT22;13462;50.764;4.332;2023-02-28T07:04:43;1.10;99.90
25582;DHT22;13462;50.764;4.332;2023-02-28T07:07:09;1.10;99.90
25582;DHT22;13462;50.764;4.332;2023-02-28T07:09:35;1.10;99.90
25582;DHT22;13462;50.764;4.332;2023-02-28T07:12:00;1.20;99.90
25582;DHT22;13462;50.764;4.332;2023-02-28T07:14:26;1.20;99.90
25582;DHT22;13462;50.764;4.332;2023-02-28T07:16:51;1.30;99.90
25582;DHT22;13462;50.764;4.332;2023-02-28T07:19:17;1.50;99.90
25582;DHT22;13462;50.764;4.332;2023-02-28T07:21:42;1.60;99.90
25582;DHT22;13462;50.764;4.332;2023-02-28T07:24:08;1.60;99.90
25582;DHT22;13462;50.764;4.332;2023-02-28T07:26:33;1.80;99.90
25582;DHT22;13462;50.764;4.332;2023-02-28T07:29:02;1.90;99.90
25582;DHT22;13462;50.764;4.332;2023-02-28T07:31:27;2.00;99.90
25582;DHT22;13462;50.764;4.332;2023-02-28T07:33:53;2.20;99.90
25582;DHT22;13462;50.764;4.332;2023-02-28T07:36:19;2.30;99.90
25582;DHT22;13462;50.764;4.332;2023-02-28T07:38:45;2.40;99.90
25582;DHT22;13462;50.764;4.332;2023-02-28T07:41:13;2.40;99.90
25582;DHT22;13462;50.764;4.332;2023-02-28T07:43:39;3.20;99.90
25582;DHT22;13462;50.764;4.332;2023-02-28T07:46:04;4.50;99.90
25582;DHT22;13462;50.764;4.332;2023-02-28T07:48:30;5.10;99.90
25582;DHT22;13462;50.764;4.332;2023-02-28T07:50:56;5.70;99.90
25582;DHT22;13462;50.764;4.332;2023-02-28T07:53:22;7.20;99.90
25582;DHT22;13462;50.764;4.332;2023-02-28T07:55:47;9.00;99.90
25582;DHT22;13462;50.764;4.332;2023-02-28T07:58:13;9.80;95.70
25582;DHT22;13462;50.764;4.332;2023-02-28T08:00:38;9.60;93.70
25582;DHT22;13462;50.764;4.332;2023-02-28T08:03:04;10.70;91.80
25582;DHT22;13462;50.764;4.332;2023-02-28T08:05:29;10.80;90.20
25582;DHT22;13462;50.764;4.332;2023-02-28T08:07:56;10.80;89.10
25582;DHT22;13462;50.764;4.332;2023-02-28T08:10:21;10.80;87.20
25582;DHT22;13462;50.764;4.332;2023-02-28T08:12:47;10.70;85.70
25582;DHT22;13462;50.764;4.332;2023-02-28T08:15:12;10.40;85.00
25582;DHT22;13462;50.764;4.332;2023-02-28T08:17:37;10.50;84.40
25582;DHT22;13462;50.764;4.332;2023-02-28T08:20:03;10.50;83.90
25582;DHT22;13462;50.764;4.332;2023-02-28T08:22:29;9.50;85.10
25582;DHT22;13462;50.764;4.332;2023-02-28T08:24:55;8.90;87.50
25582;DHT22;13462;50.764;4.332;2023-02-28T08:27:20;8.70;88.60
25582;DHT22;13462;50.764;4.332;2023-02-28T08:29:46;8.10;89.10
25582;DHT22;13462;50.764;4.332;2023-02-28T08:32:11;8.40;90.60
25582;DHT22;13462;50.764;4.332;2023-02-28T08:34:38;9.60;86.60
25582;DHT22;13462;50.764;4.332;2023-02-28T08:37:03;10.30;84.70
25582;DHT22;13462;50.764;4.332;2023-02-28T08:39:29;10.60;80.80
25582;DHT22;13462;50.764;4.332;2023-02-28T08:41:54;11.30;80.90
25582;DHT22;13462;50.764;4.332;2023-02-28T08:44:20;11.40;78.40
25582;DHT22;13462;50.764;4.332;2023-02-28T08:46:45;12.40;78.60
25582;DHT22;13462;50.764;4.332;2023-02-28T08:49:11;13.20;73.70
25582;DHT22;13462;50.764;4.332;2023-02-28T08:51:37;13.80;69.70
25582;DHT22;13462;50.764;4.332;2023-02-28T08:54:03;14.20;69.20
25582;DHT22;13462;50.764;4.332;2023-02-28T08:56:28;14.50;66.20
25582;DHT22;13462;50.764;4.332;2023-02-28T08:58:55;14.20;65.90
25582;DHT22;13462;50.764;4.332;2023-02-28T09:01:22;15.10;63.20
25582;DHT22;13462;50.764;4.332;2023-02-28T09:03:48;15.60;63.50
25582;DHT22;13462;50.764;4.332;2023-02-28T09:06:14;17.40;60.80
25582;DHT22;13462;50.764;4.332;2023-02-28T09:08:40;17.90;56.80
25582;DHT22;13462;50.764;4.332;2023-02-28T09:11:06;16.80;55.20
25582;DHT22;13462;50.764;4.332;2023-02-28T09:13:32;16.30;56.40
25582;DHT22;13462;50.764;4.332;2023-02-28T09:16:00;16.80;56.20
25582;DHT22;13462;50.764;4.332;2023-02-28T09:18:26;17.00;54.20
25582;DHT22;13462;50.764;4.332;2023-02-28T09:20:52;16.90;53.70
25582;DHT22;13462;50.764;4.332;2023-02-28T09:23:18;16.10;53.30
25582;DHT22;13462;50.764;4.332;2023-02-28T09:25:48;15.90;55.20
25582;DHT22;13462;50.764;4.332;2023-02-28T09:28:14;16.10;53.00
25582;DHT22;13462;50.764;4.332;2023-02-28T09:30:41;15.20;52.60
25582;DHT22;13462;50.764;4.332;2023-02-28T09:33:07;15.20;53.90
25582;DHT22;13462;50.764;4.332;2023-02-28T09:35:32;14.30;54.70
25582;DHT22;13462;50.764;4.332;2023-02-28T09:37:58;14.30;55.50
25582;DHT22;13462;50.764;4.332;2023-02-28T09:40:24;15.10;55.40
25582;DHT22;13462;50.764;4.332;2023-02-28T09:42:51;15.70;53.00
25582;DHT22;13462;50.764;4.332;2023-02-28T09:45:28;16.00;52.20
25582;DHT22;13462;50.764;4.332;2023-02-28T09:47:56;16.50;51.60
25582;DHT22;13462;50.764;4.332;2023-02-28T09:52:56;16.20;50.90
25582;DHT22;13462;50.764;4.332;2023-02-28T09:55:25;16.60;50.10
25582;DHT22;13462;50.764;4.332;2023-02-28T09:57:53;17.40;49.70
25582;DHT22;13462;50.764;4.332;2023-02-28T10:05:19;17.60;48.50
25582;DHT22;13462;50.764;4.332;2023-02-28T10:08:02;17.80;47.00
25582;DHT22;13462;50.764;4.332;2023-02-28T10:10:47;17.40;47.20
25582;DHT22;13462;50.764;4.332;2023-02-28T10:13:19;17.60;46.50
25582;DHT22;13462;50.764;4.332;2023-02-28T10:15:45;17.40;47.60
25582;DHT22;13462;50.764;4.332;2023-02-28T10:18:12;16.60;47.30
25582;DHT22;13462;50.764;4.332;2023-02-28T10:20:40;16.00;47.80
25582;DHT22;13462;50.764;4.332;2023-02-28T10:23:27;16.00;48.10
25582;DHT22;13462;50.764;4.332;2023-02-28T10:26:00;16.10;48.40
25582;DHT22;13462;50.764;4.332;2023-02-28T10:28:26;17.20;47.90
25582;DHT22;13462;50.764;4.332;2023-02-28T10:30:53;17.20;45.80
25582;DHT22;13462;50.764;4.332;2023-02-28T10:33:28;16.70;46.70
25582;DHT22;13462;50.764;4.332;2023-02-28T10:35:54;16.50;45.50
25582;DHT22;13462;50.764;4.332;2023-02-28T10:38:21;16.60;46.80
25582;DHT22;13462;50.764;4.332;2023-02-28T10:40:47;16.90;46.10
25582;DHT22;13462;50.764;4.332;2023-02-28T10:45:38;17.20;44.60
25582;DHT22;13462;50.764;4.332;2023-02-28T10:48:05;17.60;44.50
25582;DHT22;13462;50.764;4.332;2023-02-28T10:50:44;16.50;45.00
25582;DHT22;13462;50.764;4.332;2023-02-28T10:55:57;16.30;45.00
25582;DHT22;13462;50.764;4.332;2023-02-28T10:58:25;15.40;45.80
25582;DHT22;13462;50.764;4.332;2023-02-28T11:00:51;15.90;45.50
25582;DHT22;13462;50.764;4.332;2023-02-28T11:03:50;15.90;45.50
25582;DHT22;13462;50.764;4.332;2023-02-28T11:06:42;15.40;45.60
25582;DHT22;13462;50.764;4.332;2023-02-28T11:09:02;15.70;46.20
25582;DHT22;13462;50.764;4.332;2023-02-28T11:11:29;15.80;45.70
25582;DHT22;13462;50.764;4.332;2023-02-28T11:14:03;15.00;45.80
25582;DHT22;13462;50.764;4.332;2023-02-28T11:16:33;14.80;46.70
25582;DHT22;13462;50.764;4.332;2023-02-28T11:19:00;14.90;45.80
25582;DHT22;13462;50.764;4.332;2023-02-28T11:24:00;14.80;46.50
25582;DHT22;13462;50.764;4.332;2023-02-28T11:26:43;15.60;46.60
25582;DHT22;13462;50.764;4.332;2023-02-28T11:31:40;16.20;44.30
25582;DHT22;13462;50.764;4.332;2023-02-28T11:34:23;15.90;45.00
25582;DHT22;13462;50.764;4.332;2023-02-28T11:36:48;15.60;45.00
25582;DHT22;13462;50.764;4.332;2023-02-28T11:39:14;15.30;45.20
25582;DHT22;13462;50.764;4.332;2023-02-28T11:44:18;14.90;47.30
25582;DHT22;13462;50.764;4.332;2023-02-28T12:00:07;10.80;53.20
25582;DHT22;13462;50.764;4.332;2023-02-28T12:13:05;10.60;55.80
25582;DHT22;13462;50.764;4.332;2023-02-28T12:20:49;10.50;54.00
25582;DHT22;13462;50.764;4.332;2023-02-28T12:23:37;10.80;53.20
25582;DHT22;13462;50.764;4.332;2023-02-28T12:26:27;10.90;53.60
25582;DHT22;13462;50.764;4.332;2023-02-28T12:28:58;11.90;52.00
25582;DHT22;13462;50.764;4.332;2023-02-28T12:31:26;12.40;51.90
25582;DHT22;13462;50.764;4.332;2023-02-28T12:33:54;12.70;49.90
25582;DHT22;13462;50.764;4.332;2023-02-28T12:36:20;12.40;49.40
25582;DHT22;13462;50.764;4.332;2023-02-28T12:38:53;12.60;50.10
25582;DHT22;13462;50.764;4.332;2023-02-28T12:41:23;13.20;48.10
25582;DHT22;13462;50.764;4.332;2023-02-28T12:43:57;13.70;48.50
25582;DHT22;13462;50.764;4.332;2023-02-28T12:46:29;13.90;47.00
25582;DHT22;13462;50.764;4.332;2023-02-28T12:48:56;14.40;46.70
25582;DHT22;13462;50.764;4.332;2023-02-28T12:51:22;14.70;46.20
25582;DHT22;13462;50.764;4.332;2023-02-28T13:09:40;14.60;46.10
25582;DHT22;13462;50.764;4.332;2023-02-28T13:12:13;14.60;47.50
25582;DHT22;13462;50.764;4.332;2023-02-28T13:14:39;15.60;47.20
25582;DHT22;13462;50.764;4.332;2023-02-28T13:19:37;14.40;48.10
25582;DHT22;13462;50.764;4.332;2023-02-28T13:22:03;14.50;47.80
25582;DHT22;13462;50.764;4.332;2023-02-28T13:29:39;14.40;46.90
25582;DHT22;13462;50.764;4.332;2023-02-28T13:34:32;13.80;46.80
25582;DHT22;13462;50.764;4.332;2023-02-28T13:37:30;13.80;47.50
25582;DHT22;13462;50.764;4.332;2023-02-28T13:39:58;14.10;47.30
25582;DHT22;13462;50.764;4.332;2023-02-28T13:47:35;13.80;46.80
25582;DHT22;13462;50.764;4.332;2023-02-28T13:50:47;13.70;47.50
25582;DHT22;13462;50.764;4.332;2023-02-28T13:57:48;14.40;46.80
25582;DHT22;13462;50.764;4.332;2023-02-28T14:05:46;14.80;46.30
25582;DHT22;13462;50.764;4.332;2023-02-28T14:08:16;13.80;46.50
25582;DHT22;13462;50.764;4.332;2023-02-28T14:10:47;12.90;48.10
25582;DHT22;13462;50.764;4.332;2023-02-28T14:15:40;11.00;51.50
25582;DHT22;13462;50.764;4.332;2023-02-28T14:20:52;11.10;51.40
25582;DHT22;13462;50.764;4.332;2023-02-28T14:23:36;11.40;51.20
25582;DHT22;13462;50.764;4.332;2023-02-28T14:31:12;11.80;50.70
25582;DHT22;13462;50.764;4.332;2023-02-28T14:38:36;10.90;51.50
25582;DHT22;13462;50.764;4.332;2023-02-28T14:41:05;10.90;52.10
25582;DHT22;13462;50.764;4.332;2023-02-28T14:43:32;10.60;52.30
25582;DHT22;13462;50.764;4.332;2023-02-28T14:46:01;10.00;52.60
25582;DHT22;13462;50.764;4.332;2023-02-28T14:48:27;9.80;54.10
25582;DHT22;13462;50.764;4.332;2023-02-28T14:50:57;10.00;53.80
25582;DHT22;13462;50.764;4.332;2023-02-28T14:53:25;9.80;54.50
25582;DHT22;13462;50.764;4.332;2023-02-28T14:55:51;9.90;55.10
25582;DHT22;13462;50.764;4.332;2023-02-28T14:58:25;9.70;54.30
25582;DHT22;13462;50.764;4.332;2023-02-28T15:00:51;9.60;54.90
25582;DHT22;13462;50.764;4.332;2023-02-28T15:05:50;9.20;55.00
25582;DHT22;13462;50.764;4.332;2023-02-28T15:08:17;9.10;56.40
25582;DHT22;13462;50.764;4.332;2023-02-28T15:10:53;9.00;55.90
25582;DHT22;13462;50.764;4.332;2023-02-28T15:13:19;8.50;56.60
25582;DHT22;13462;50.764;4.332;2023-02-28T15:18:13;7.80;57.70
25582;DHT22;13462;50.764;4.332;2023-02-28T15:20:40;7.30;58.30
25582;DHT22;13462;50.764;4.332;2023-02-28T15:23:06;7.20;59.50
25582;DHT22;13462;50.764;4.332;2023-02-28T15:25:32;7.20;59.70
25582;DHT22;13462;50.764;4.332;2023-02-28T15:27:58;7.20;59.70
25582;DHT22;13462;50.764;4.332;2023-02-28T15:30:27;7.10;59.80
25582;DHT22;13462;50.764;4.332;2023-02-28T15:33:07;7.00;60.10
25582;DHT22;13462;50.764;4.332;2023-02-28T15:35:42;6.90;61.10
25582;DHT22;13462;50.764;4.332;2023-02-28T15:38:25;6.80;60.50
25582;DHT22;13462;50.764;4.332;2023-02-28T15:40:52;6.70;62.00
25582;DHT22;13462;50.764;4.332;2023-02-28T15:43:28;6.60;61.60
25582;DHT22;13462;50.764;4.332;2023-02-28T15:46:07;6.50;62.10
25582;DHT22;13462;50.764;4.332;2023-02-28T15:48:38;6.40;62.50
25582;DHT22;13462;50.764;4.332;2023-02-28T15:53:37;6.20;63.40
25582;DHT22;13462;50.764;4.332;2023-02-28T15:56:15;6.20;62.80
25582;DHT22;13462;50.764;4.332;2023-02-28T15:58:44;6.10;63.10
25582;DHT22;13462;50.764;4.332;2023-02-28T16:01:17;6.00;63.40
25582;DHT22;13462;50.764;4.332;2023-02-28T16:03:44;6.00;64.10
25582;DHT22;13462;50.764;4.332;2023-02-28T16:08:55;6.00;64.50
25582;DHT22;13462;50.764;4.332;2023-02-28T16:11:21;5.90;64.50
25582;DHT22;13462;50.764;4.332;2023-02-28T16:13:47;5.80;65.70
25582;DHT22;13462;50.764;4.332;2023-02-28T16:16:16;5.80;66.60
25582;DHT22;13462;50.764;4.332;2023-02-28T16:18:42;5.80;67.20
25582;DHT22;13462;50.764;4.332;2023-02-28T16:21:08;5.70;66.20
25582;DHT22;13462;50.764;4.332;2023-02-28T16:23:34;5.70;67.10
25582;DHT22;13462;50.764;4.332;2023-02-28T16:25:59;5.70;66.60
25582;DHT22;13462;50.764;4.332;2023-02-28T16:28:30;5.70;66.60
25582;DHT22;13462;50.764;4.332;2023-02-28T16:30:57;5.60;66.90
25582;DHT22;13462;50.764;4.332;2023-02-28T16:33:24;5.50;67.20
25582;DHT22;13462;50.764;4.332;2023-02-28T16:35:49;5.60;67.80
25582;DHT22;13462;50.764;4.332;2023-02-28T16:38:15;5.50;67.20
25582;DHT22;13462;50.764;4.332;2023-02-28T16:40:40;5.50;67.70
25582;DHT22;13462;50.764;4.332;2023-02-28T16:43:07;5.20;68.10
25582;DHT22;13462;50.764;4.332;2023-02-28T16:45:34;5.20;68.80
25582;DHT22;13462;50.764;4.332;2023-02-28T16:47:59;5.00;69.50
25582;DHT22;13462;50.764;4.332;2023-02-28T16:50:29;5.00;69.90
25582;DHT22;13462;50.764;4.332;2023-02-28T16:52:55;4.90;70.30
25582;DHT22;13462;50.764;4.332;2023-02-28T16:55:21;4.90;70.80
25582;DHT22;13462;50.764;4.332;2023-02-28T16:57:50;4.90;71.30
25582;DHT22;13462;50.764;4.332;2023-02-28T17:00:16;4.90;71.00
25582;DHT22;13462;50.764;4.332;2023-02-28T17:02:41;4.80;71.00
25582;DHT22;13462;50.764;4.332;2023-02-28T17:05:08;4.70;71.50
25582;DHT22;13462;50.764;4.332;2023-02-28T17:07:33;4.70;71.90
25582;DHT22;13462;50.764;4.332;2023-02-28T17:09:59;4.60;72.50
25582;DHT22;13462;50.764;4.332;2023-02-28T17:12:33;4.50;73.10
25582;DHT22;13462;50.764;4.332;2023-02-28T17:14:59;4.60;73.40
25582;DHT22;13462;50.764;4.332;2023-02-28T17:17:24;4.50;73.70
25582;DHT22;13462;50.764;4.332;2023-02-28T17:19:50;4.40;74.30
25582;DHT22;13462;50.764;4.332;2023-02-28T17:22:15;4.30;75.10
25582;DHT22;13462;50.764;4.332;2023-02-28T17:24:41;4.20;76.00
25582;DHT22;13462;50.764;4.332;2023-02-28T17:27:09;4.10;77.00
25582;DHT22;13462;50.764;4.332;2023-02-28T17:29:35;4.00;77.10
25582;DHT22;13462;50.764;4.332;2023-02-28T17:32:00;4.00;76.80
25582;DHT22;13462;50.764;4.332;2023-02-28T17:34:25;4.10;76.00
25582;DHT22;13462;50.764;4.332;2023-02-28T17:36:51;4.10;76.10
25582;DHT22;13462;50.764;4.332;2023-02-28T17:39:18;4.00;76.90
25582;DHT22;13462;50.764;4.332;2023-02-28T17:41:53;3.90;77.30
25582;DHT22;13462;50.764;4.332;2023-02-28T17:44:19;3.80;78.00
25582;DHT22;13462;50.764;4.332;2023-02-28T17:46:45;3.80;78.10
25582;DHT22;13462;50.764;4.332;2023-02-28T17:49:11;3.80;78.30
25582;DHT22;13462;50.764;4.332;2023-02-28T17:51:36;3.70;78.70
25582;DHT22;13462;50.764;4.332;2023-02-28T17:54:02;3.70;78.80
25582;DHT22;13462;50.764;4.332;2023-02-28T17:56:27;3.50;80.50
25582;DHT22;13462;50.764;4.332;2023-02-28T17:58:53;3.40;81.50
25582;DHT22;13462;50.764;4.332;2023-02-28T18:01:20;3.30;82.00
25582;DHT22;13462;50.764;4.332;2023-02-28T18:03:46;3.10;83.10
25582;DHT22;13462;50.764;4.332;2023-02-28T18:06:16;3.10;83.00
25582;DHT22;13462;50.764;4.332;2023-02-28T18:08:44;3.00;84.80
25582;DHT22;13462;50.764;4.332;2023-02-28T18:11:09;2.80;86.80
25582;DHT22;13462;50.764;4.332;2023-02-28T18:13:43;2.80;87.40
25582;DHT22;13462;50.764;4.332;2023-02-28T18:16:09;2.70;88.30